Time;durP1;ratioP1;P1;durP2;ratioP2;P2;SDS_P1;SDS_P2;PMS_P1;PMS_P2;Temp;Humidity;BMP_temperature;BMP_pressure;BME280_temperature;BME280_humidity;BME280_pressure;Samples;Min_cycle;Max_cycle;Signal;HPM_P1;HPM_P2
2021/10/28 00:13:44;;;;;;;0.10;0.10;;;;;;;;;;5085987;28;20432;-68
2021/10/28 00:16:16;;;;;;;0.10;0.10;;;;;;;;;;5086319;28;20406;-69
2021/10/28 00:18:44;;;;;;;0.10;0.10;;;;;;;;;;5085837;28;20227;-68
2021/10/28 00:21:10;;;;;;;0.10;0.10;;;;;;;;;;5086098;28;20209;-69
2021/10/28 00:23:43;;;;;;;0.10;0.10;;;;;;;;;;5086081;28;20347;-69
2021/10/28 00:26:10;;;;;;;0.10;0.10;;;;;;;;;;5106224;28;20199;-69
2021/10/28 00:28:36;;;;;;;0.10;0.10;;;;;;;;;;5094019;28;20237;-68
2021/10/28 00:31:03;;;;;;;0.10;0.10;;;;;;;;;;5085252;28;20243;-68
2021/10/28 00:33:31;;;;;;;0.10;0.10;;;;;;;;;;5085520;28;20202;-69
2021/10/28 00:35:57;;;;;;;0.10;0.10;;;;;;;;;;5098054;28;20222;-68
2021/10/28 00:38:24;;;;;;;0.10;0.10;;;;;;;;;;5086838;28;20223;-68
2021/10/28 00:40:50;;;;;;;0.47;0.47;;;;;;;;;;5096776;28;20264;-69
2021/10/28 00:43:16;;;;;;;0.10;0.10;;;;;;;;;;5088688;28;20211;-69
2021/10/28 00:45:42;;;;;;;0.10;0.10;;;;;;;;;;5085749;28;20210;-68
2021/10/28 00:48:09;;;;;;;0.10;0.10;;;;;;;;;;5085240;28;20211;-69
2021/10/28 00:50:36;;;;;;;0.97;0.97;;;;;;;;;;5092629;28;20353;-69
2021/10/28 00:53:03;;;;;;;0.10;0.10;;;;;;;;;;5092461;28;20210;-70
2021/10/28 00:55:29;;;;;;;0.10;0.10;;;;;;;;;;5085136;28;20228;-70
2021/10/28 00:57:56;;;;;;;0.10;0.10;;;;;;;;;;5084841;28;20285;-68
2021/10/28 01:00:22;;;;;;;0.10;0.10;;;;;;;;;;5085311;28;20199;-70
2021/10/28 01:02:49;;;;;;;0.10;0.10;;;;;;;;;;5085196;28;20210;-69
2021/10/28 01:05:15;;;;;;;0.10;0.10;;;;;;;;;;5099249;28;20206;-69
2021/10/28 01:07:43;;;;;;;0.10;0.10;;;;;;;;;;5084984;28;20218;-68
2021/10/28 01:10:10;;;;;;;0.10;0.10;;;;;;;;;;5099165;28;20549;-68
2021/10/28 01:12:36;;;;;;;0.10;0.10;;;;;;;;;;5084159;28;20287;-69
2021/10/28 01:15:02;;;;;;;0.10;0.10;;;;;;;;;;5083888;28;20210;-69
2021/10/28 01:17:30;;;;;;;0.10;0.10;;;;;;;;;;5084661;28;20206;-68
2021/10/28 01:19:58;;;;;;;0.10;0.10;;;;;;;;;;5084952;28;20207;-68
2021/10/28 01:22:24;;;;;;;0.10;0.10;;;;;;;;;;5084555;28;20226;-70
2021/10/28 01:24:50;;;;;;;0.10;0.10;;;;;;;;;;5084766;28;20208;-69
2021/10/28 01:27:17;;;;;;;0.83;0.83;;;;;;;;;;5084895;28;20317;-68
2021/10/28 01:29:43;;;;;;;0.10;0.10;;;;;;;;;;5084830;28;20196;-69
2021/10/28 01:32:10;;;;;;;0.10;0.10;;;;;;;;;;5084680;28;20289;-69
2021/10/28 01:34:41;;;;;;;0.50;0.50;;;;;;;;;;5084740;28;20260;-68
2021/10/28 01:37:10;;;;;;;0.10;0.10;;;;;;;;;;5084355;28;20506;-68
2021/10/28 01:39:36;;;;;;;0.10;0.10;;;;;;;;;;5084226;28;20514;-69
2021/10/28 01:42:02;;;;;;;0.10;0.10;;;;;;;;;;5084646;28;20265;-68
2021/10/28 01:44:29;;;;;;;0.10;0.10;;;;;;;;;;5084165;28;20199;-68
2021/10/28 01:46:55;;;;;;;0.10;0.10;;;;;;;;;;5084132;28;20226;-69
2021/10/28 01:49:22;;;;;;;0.10;0.10;;;;;;;;;;5084457;28;20241;-69
2021/10/28 01:51:49;;;;;;;0.10;0.10;;;;;;;;;;5084370;28;20200;-69
2021/10/28 01:54:17;;;;;;;0.10;0.10;;;;;;;;;;5084361;28;20247;-69
2021/10/28 01:56:43;;;;;;;0.10;0.10;;;;;;;;;;5083991;28;20394;-70
2021/10/28 01:59:10;;;;;;;0.10;0.10;;;;;;;;;;5096494;28;20223;-68
2021/10/28 02:01:36;;;;;;;0.10;0.10;;;;;;;;;;5100062;28;20204;-69
2021/10/28 02:04:02;;;;;;;0.10;0.10;;;;;;;;;;5083925;28;20205;-69
2021/10/28 02:06:29;;;;;;;0.10;0.10;;;;;;;;;;5083812;28;20210;-69
2021/10/28 02:08:55;;;;;;;0.10;0.10;;;;;;;;;;5084024;28;20199;-68
2021/10/28 02:11:23;;;;;;;0.10;0.10;;;;;;;;;;5083610;28;20210;-69
2021/10/28 02:13:49;;;;;;;0.10;0.10;;;;;;;;;;5084091;28;20397;-69
2021/10/28 02:16:15;;;;;;;0.10;0.10;;;;;;;;;;5083578;28;20217;-69
2021/10/28 02:18:42;;;;;;;0.20;0.20;;;;;;;;;;5083523;28;20450;-69
2021/10/28 02:21:08;;;;;;;0.10;0.10;;;;;;;;;;5083815;28;20206;-69
2021/10/28 02:23:34;;;;;;;0.10;0.10;;;;;;;;;;5083681;28;20269;-69
2021/10/28 02:26:00;;;;;;;0.10;0.10;;;;;;;;;;5083052;28;20200;-69
2021/10/28 02:28:28;;;;;;;0.10;0.10;;;;;;;;;;5083619;28;20344;-68
2021/10/28 02:30:54;;;;;;;0.10;0.10;;;;;;;;;;5083600;28;20276;-70
2021/10/28 02:33:20;;;;;;;0.10;0.10;;;;;;;;;;5084016;28;20252;-69
2021/10/28 02:35:46;;;;;;;0.10;0.10;;;;;;;;;;5083486;28;20208;-68
2021/10/28 02:38:13;;;;;;;0.10;0.10;;;;;;;;;;5083261;28;20219;-68
2021/10/28 02:40:39;;;;;;;0.10;0.10;;;;;;;;;;5083453;28;20208;-69
2021/10/28 02:43:05;;;;;;;0.10;0.10;;;;;;;;;;5083460;28;20328;-68
2021/10/28 02:45:33;;;;;;;0.10;0.10;;;;;;;;;;5097294;28;20211;-69
2021/10/28 02:47:59;;;;;;;0.10;0.10;;;;;;;;;;5083355;28;20206;-68
2021/10/28 02:50:25;;;;;;;0.10;0.10;;;;;;;;;;5069854;28;20204;-69
2021/10/28 02:52:51;;;;;;;0.10;0.10;;;;;;;;;;5082534;28;20270;-70
2021/10/28 02:55:17;;;;;;;0.10;0.10;;;;;;;;;;5083345;28;20207;-68
2021/10/28 02:57:44;;;;;;;0.10;0.10;;;;;;;;;;5083235;28;20253;-68
2021/10/28 03:00:11;;;;;;;0.10;0.10;;;;;;;;;;5083262;28;20280;-69
2021/10/28 03:02:38;;;;;;;0.10;0.10;;;;;;;;;;5083055;28;20222;-69
2021/10/28 03:05:05;;;;;;;0.10;0.10;;;;;;;;;;5082935;28;20448;-68
2021/10/28 03:07:33;;;;;;;0.10;0.10;;;;;;;;;;5082988;28;20199;-69
2021/10/28 03:10:01;;;;;;;0.10;0.10;;;;;;;;;;5083135;28;20200;-68
2021/10/28 03:12:27;;;;;;;0.10;0.10;;;;;;;;;;5082721;28;20207;-68
2021/10/28 03:14:56;;;;;;;0.10;0.10;;;;;;;;;;5082919;28;20279;-69
2021/10/28 03:17:29;;;;;;;0.10;0.10;;;;;;;;;;5072058;28;20317;-69
2021/10/28 03:25:33;;;;;;;0.10;0.10;;;;;;;;;;5081004;28;20210;-68
2021/10/28 03:25:41;;;;;;;0.10;0.10;;;;;;;;;;5082791;28;20411;-69
2021/10/28 03:28:14;;;;;;;0.10;0.10;;;;;;;;;;5082993;28;20208;-69
2021/10/28 03:30:41;;;;;;;0.50;0.50;;;;;;;;;;5082790;28;20569;-69
2021/10/28 03:33:10;;;;;;;0.10;0.10;;;;;;;;;;5082966;28;20256;-68
2021/10/28 03:35:37;;;;;;;0.10;0.10;;;;;;;;;;5082718;28;20203;-68
2021/10/28 03:38:09;;;;;;;0.10;0.10;;;;;;;;;;5083290;28;20209;-69
2021/10/28 03:43:36;;;;;;;0.10;0.10;;;;;;;;;;5086781;28;20252;-69
2021/10/28 03:49:11;;;;;;;0.10;0.10;;;;;;;;;;5086525;28;20191;-68
2021/10/28 04:00:26;;;;;;;0.10;0.10;;;;;;;;;;5064051;28;20239;-68
2021/10/28 04:08:50;;;;;;;0.10;0.10;;;;;;;;;;5086088;28;20238;-69
2021/10/28 04:30:19;;;;;;;0.10;0.10;;;;;;;;;;5085586;28;20304;-69
2021/10/28 04:32:45;;;;;;;0.20;0.20;;;;;;;;;;5085427;28;20206;-68
2021/10/28 04:35:12;;;;;;;0.30;0.30;;;;;;;;;;5071592;28;20203;-69
2021/10/28 04:37:38;;;;;;;0.10;0.10;;;;;;;;;;5071732;28;20200;-69
2021/10/28 04:40:07;;;;;;;0.10;0.10;;;;;;;;;;5085368;28;20241;-69
2021/10/28 04:42:33;;;;;;;0.10;0.10;;;;;;;;;;5085590;28;20206;-68
2021/10/28 04:45:00;;;;;;;0.10;0.10;;;;;;;;;;5085702;28;20210;-69
2021/10/28 04:47:26;;;;;;;0.10;0.10;;;;;;;;;;5085605;28;20245;-69
2021/10/28 04:49:52;;;;;;;0.10;0.10;;;;;;;;;;5085486;28;20260;-70
2021/10/28 04:52:21;;;;;;;0.10;0.10;;;;;;;;;;5085430;28;20201;-69
2021/10/28 04:54:47;;;;;;;0.10;0.10;;;;;;;;;;5085521;28;20207;-69
2021/10/28 04:57:15;;;;;;;0.10;0.10;;;;;;;;;;5085540;28;20204;-69
2021/10/28 04:59:41;;;;;;;0.13;0.13;;;;;;;;;;5085247;28;20225;-68
2021/10/28 05:02:08;;;;;;;0.10;0.10;;;;;;;;;;5085443;28;20404;-69
2021/10/28 05:04:34;;;;;;;0.10;0.10;;;;;;;;;;5084934;28;20200;-69
2021/10/28 05:07:00;;;;;;;0.10;0.10;;;;;;;;;;5084997;28;20195;-69
2021/10/28 05:09:28;;;;;;;0.10;0.10;;;;;;;;;;5085185;28;20199;-69
2021/10/28 05:11:54;;;;;;;0.30;0.30;;;;;;;;;;5085213;28;20199;-68
2021/10/28 05:14:22;;;;;;;0.30;0.30;;;;;;;;;;5085088;28;20210;-68
2021/10/28 05:16:50;;;;;;;0.10;0.10;;;;;;;;;;5084850;28;20436;-68
2021/10/28 05:19:17;;;;;;;0.27;0.27;;;;;;;;;;5084652;28;20226;-68
2021/10/28 05:21:43;;;;;;;0.10;0.10;;;;;;;;;;5084879;28;20208;-69
2021/10/28 05:24:09;;;;;;;0.10;0.10;;;;;;;;;;5084737;28;20246;-68
2021/10/28 05:26:35;;;;;;;0.10;0.10;;;;;;;;;;5084965;28;20243;-68
2021/10/28 05:29:02;;;;;;;0.10;0.10;;;;;;;;;;5084919;28;20384;-68
2021/10/28 05:31:29;;;;;;;0.10;0.10;;;;;;;;;;5084561;28;20220;-69
2021/10/28 05:33:55;;;;;;;0.10;0.10;;;;;;;;;;5084824;28;20206;-68
2021/10/28 05:36:22;;;;;;;0.10;0.10;;;;;;;;;;5084483;28;20247;-68
2021/10/28 05:38:48;;;;;;;0.10;0.10;;;;;;;;;;5084107;28;20224;-68
2021/10/28 05:41:14;;;;;;;0.10;0.10;;;;;;;;;;5084714;28;20484;-69
2021/10/28 05:43:40;;;;;;;0.10;0.10;;;;;;;;;;5084306;28;20227;-69
2021/10/28 05:46:07;;;;;;;0.10;0.10;;;;;;;;;;5084242;28;20209;-69
2021/10/28 05:48:34;;;;;;;0.10;0.10;;;;;;;;;;5084249;28;20251;-69
2021/10/28 05:51:01;;;;;;;0.10;0.10;;;;;;;;;;5084254;28;20268;-69
2021/10/28 05:53:28;;;;;;;0.10;0.10;;;;;;;;;;5084428;28;20265;-68
2021/10/28 05:55:54;;;;;;;0.10;0.10;;;;;;;;;;5081918;28;20244;-69
2021/10/28 05:58:20;;;;;;;0.10;0.10;;;;;;;;;;5072691;28;20213;-68
2021/10/28 06:00:47;;;;;;;0.10;0.10;;;;;;;;;;5089066;28;20264;-69
2021/10/28 06:03:13;;;;;;;0.10;0.10;;;;;;;;;;5094899;28;20208;-69
2021/10/28 06:05:41;;;;;;;0.10;0.10;;;;;;;;;;5077848;28;20209;-67
2021/10/28 06:08:07;;;;;;;0.10;0.10;;;;;;;;;;5090373;28;20209;-68
2021/10/28 06:10:33;;;;;;;0.13;0.13;;;;;;;;;;5087311;28;20196;-68
2021/10/28 06:13:01;;;;;;;0.10;0.10;;;;;;;;;;5085161;28;20247;-69
2021/10/28 06:15:30;;;;;;;0.10;0.10;;;;;;;;;;5094849;28;20200;-69
2021/10/28 06:17:57;;;;;;;0.10;0.10;;;;;;;;;;5092403;28;20311;-68
2021/10/28 06:20:23;;;;;;;0.20;0.20;;;;;;;;;;5083728;28;20467;-70
2021/10/28 06:22:51;;;;;;;0.10;0.10;;;;;;;;;;5083730;28;20321;-69
2021/10/28 06:25:18;;;;;;;0.10;0.10;;;;;;;;;;5082509;28;20265;-69
2021/10/28 06:27:45;;;;;;;0.10;0.10;;;;;;;;;;5099488;28;20210;-70
2021/10/28 06:30:11;;;;;;;0.10;0.10;;;;;;;;;;5088637;28;20204;-69
2021/10/28 06:32:42;;;;;;;0.10;0.10;;;;;;;;;;5091068;28;20403;-69
2021/10/28 06:35:09;;;;;;;0.10;0.10;;;;;;;;;;5077036;28;20228;-70
2021/10/28 06:37:35;;;;;;;0.10;0.10;;;;;;;;;;5092223;28;20209;-69
2021/10/28 06:40:03;;;;;;;0.53;0.53;;;;;;;;;;5099819;28;20533;-69
2021/10/28 06:42:29;;;;;;;0.10;0.10;;;;;;;;;;5085432;28;20270;-68
2021/10/28 06:44:55;;;;;;;0.10;0.10;;;;;;;;;;5085479;28;20222;-69
2021/10/28 06:47:21;;;;;;;0.10;0.10;;;;;;;;;;5095167;28;20495;-70
2021/10/28 06:49:48;;;;;;;0.10;0.10;;;;;;;;;;5083095;28;20208;-69
2021/10/28 06:52:14;;;;;;;0.33;0.33;;;;;;;;;;5083498;28;20210;-69
2021/10/28 06:54:41;;;;;;;0.10;0.10;;;;;;;;;;5082589;28;20256;-70
2021/10/28 07:02:37;;;;;;;0.20;0.20;;;;;;;;;;5089211;28;20245;-69
2021/10/28 07:05:04;;;;;;;0.10;0.10;;;;;;;;;;5083111;28;20518;-69
2021/10/28 07:07:31;;;;;;;0.13;0.13;;;;;;;;;;5076896;28;20252;-69
2021/10/28 07:10:02;;;;;;;0.10;0.10;;;;;;;;;;5076315;28;20199;-70
2021/10/28 07:12:41;;;;;;;0.10;0.10;;;;;;;;;;5087384;28;20226;-70
2021/10/28 07:15:12;;;;;;;0.10;0.10;;;;;;;;;;5089083;28;20251;-70
2021/10/28 07:17:47;;;;;;;0.10;0.10;;;;;;;;;;5083008;28;20246;-70
2021/10/28 07:20:24;;;;;;;0.20;0.20;;;;;;;;;;5093416;28;20214;-71
2021/10/28 07:23:17;;;;;;;0.10;0.10;;;;;;;;;;5083064;28;20253;-70
2021/10/28 07:28:59;;;;;;;0.10;0.10;;;;;;;;;;5073687;28;20209;-69
2021/10/28 07:31:36;;;;;;;0.10;0.10;;;;;;;;;;5087594;28;20230;-69
2021/10/28 07:34:13;;;;;;;0.13;0.13;;;;;;;;;;5075024;28;20202;-69
2021/10/28 07:39:47;;;;;;;0.10;0.10;;;;;;;;;;5068512;28;20287;-68
2021/10/28 07:59:04;;;;;;;0.10;0.10;;;;;;;;;;5062221;28;20223;-69
2021/10/28 08:15:27;;;;;;;0.10;0.10;;;;;;;;;;5074862;28;20204;-69
2021/10/28 08:18:00;;;;;;;0.10;0.10;;;;;;;;;;5083613;28;20217;-69
2021/10/28 08:23:15;;;;;;;0.00;0.00;;;;;;;;;;5081980;28;20258;-69
2021/10/28 08:28:46;;;;;;;0.10;0.10;;;;;;;;;;5085622;28;20263;-67
2021/10/28 08:31:16;;;;;;;0.10;0.10;;;;;;;;;;5086009;28;20376;-70
2021/10/28 08:33:44;;;;;;;0.08;0.08;;;;;;;;;;5085603;28;20270;-70
2021/10/28 08:36:11;;;;;;;0.00;0.00;;;;;;;;;;5086178;28;20206;-70
2021/10/28 08:38:39;;;;;;;0.10;0.10;;;;;;;;;;5071799;28;20222;-70
2021/10/28 08:41:10;;;;;;;0.00;0.00;;;;;;;;;;5085554;28;20214;-69
2021/10/28 08:43:41;;;;;;;0.10;0.10;;;;;;;;;;5085955;28;20201;-69
2021/10/28 08:46:08;;;;;;;0.00;0.00;;;;;;;;;;5085560;28;20209;-69
2021/10/28 08:48:38;;;;;;;0.00;0.00;;;;;;;;;;5085802;28;20389;-70
2021/10/28 08:51:09;;;;;;;0.10;0.10;;;;;;;;;;5085292;28;20530;-69
2021/10/28 08:53:52;;;;;;;0.00;0.00;;;;;;;;;;5085681;28;20203;-68
2021/10/28 08:56:37;;;;;;;0.00;0.00;;;;;;;;;;5085679;28;20550;-69
2021/10/28 08:59:31;;;;;;;0.00;0.00;;;;;;;;;;5085539;28;20512;-69
2021/10/28 09:24:32;;;;;;;0.00;0.00;;;;;;;;;;5085293;28;20191;-65
2021/10/28 09:27:03;;;;;;;0.00;0.00;;;;;;;;;;5070975;28;20201;-65
2021/10/28 09:29:41;;;;;;;0.00;0.00;;;;;;;;;;5085105;28;20400;-65
2021/10/28 09:32:16;;;;;;;0.57;0.57;;;;;;;;;;5084799;28;20439;-65
2021/10/28 09:35:03;;;;;;;0.00;0.00;;;;;;;;;;5085224;28;20191;-64
2021/10/28 09:46:08;;;;;;;0.00;0.00;;;;;;;;;;5100613;28;20521;-64
2021/10/28 09:51:32;;;;;;;0.00;0.00;;;;;;;;;;5047812;28;20381;-65
2021/10/28 09:54:05;;;;;;;0.00;0.00;;;;;;;;;;5087487;28;20200;-66
2021/10/28 09:59:24;;;;;;;0.03;0.03;;;;;;;;;;5084444;28;20218;-66
2021/10/28 10:01:50;;;;;;;0.00;0.00;;;;;;;;;;5084372;28;20398;-66
2021/10/28 10:04:17;;;;;;;0.10;0.10;;;;;;;;;;5075391;28;20203;-66
2021/10/28 10:06:44;;;;;;;0.10;0.10;;;;;;;;;;5084176;28;20487;-67
2021/10/28 10:09:11;;;;;;;0.00;0.00;;;;;;;;;;5084576;28;20211;-66
2021/10/28 10:11:39;;;;;;;0.40;0.40;;;;;;;;;;5097836;28;20213;-65
2021/10/28 10:14:06;;;;;;;0.00;0.00;;;;;;;;;;5083950;28;20249;-65
2021/10/28 10:16:32;;;;;;;0.00;0.00;;;;;;;;;;5084605;28;20514;-66
2021/10/28 10:18:59;;;;;;;0.05;0.05;;;;;;;;;;5083992;28;20390;-66
2021/10/28 10:21:31;;;;;;;0.00;0.00;;;;;;;;;;5090873;28;20228;-65
2021/10/28 10:24:05;;;;;;;0.00;0.00;;;;;;;;;;5098522;28;20218;-69
2021/10/28 10:29:53;;;;;;;0.10;0.10;;;;;;;;;;5093193;28;20278;-69
2021/10/28 11:21:44;;;;;;;0.03;0.03;;;;;;;;;;5086117;28;20252;-67
2021/10/28 11:30:21;;;;;;;0.05;0.05;;;;;;;;;;5080018;28;20194;-64
2021/10/28 12:17:32;;;;;;;0.10;0.10;;;;;;;;;;5086263;28;20187;-67
2021/10/28 12:27:48;;;;;;;0.10;0.10;;;;;;;;;;5086011;28;20234;-66
2021/10/28 12:45:30;;;;;;;0.10;0.10;;;;;;;;;;5081939;28;20215;-74
2021/10/28 12:48:10;;;;;;;0.10;0.10;;;;;;;;;;5099886;28;20389;-75
2021/10/28 12:50:45;;;;;;;0.10;0.10;;;;;;;;;;5085978;28;20206;-75
2021/10/28 12:53:45;;;;;;;0.10;0.10;;;;;;;;;;5095936;28;20191;-75
2021/10/28 13:02:31;;;;;;;0.10;0.10;;;;;;;;;;5085131;28;20236;-74
2021/10/28 13:27:52;;;;;;;0.10;0.10;;;;;;;;;;5074509;28;20199;-76
2021/10/28 13:38:14;;;;;;;0.10;0.10;;;;;;;;;;5084596;28;20266;-74
2021/10/28 13:48:58;;;;;;;0.10;0.10;;;;;;;;;;5089129;28;20203;-67
2021/10/28 13:51:35;;;;;;;0.00;0.00;;;;;;;;;;5092859;28;20202;-67
2021/10/28 13:57:10;;;;;;;0.08;0.08;;;;;;;;;;5086569;28;20201;-67
2021/10/28 14:21:43;;;;;;;0.10;0.10;;;;;;;;;;5076275;28;20245;-66
2021/10/28 14:27:24;;;;;;;0.00;0.00;;;;;;;;;;5082253;28;20195;-66
2021/10/28 14:30:14;;;;;;;0.10;0.10;;;;;;;;;;5075443;28;20517;-66
2021/10/28 14:33:15;;;;;;;0.03;0.03;;;;;;;;;;5083480;28;20249;-65
2021/10/28 15:34:09;;;;;;;0.10;0.10;;;;;;;;;;5082614;28;20207;-66
2021/10/28 15:36:41;;;;;;;0.10;0.10;;;;;;;;;;5078192;28;20235;-66
2021/10/28 15:39:13;;;;;;;0.10;0.10;;;;;;;;;;5086690;28;20222;-66
2021/10/28 16:23:10;;;;;;;0.10;0.10;;;;;;;;;;5079080;28;20529;-65
2021/10/28 16:25:37;;;;;;;0.10;0.10;;;;;;;;;;5079260;28;20554;-63
2021/10/28 16:28:04;;;;;;;0.10;0.10;;;;;;;;;;5079682;28;20209;-63
2021/10/28 16:30:30;;;;;;;0.10;0.10;;;;;;;;;;5079221;28;20261;-62
2021/10/28 16:32:56;;;;;;;0.10;0.10;;;;;;;;;;5079259;28;20238;-62
2021/10/28 16:35:22;;;;;;;0.10;0.10;;;;;;;;;;5077251;28;20210;-65
2021/10/28 16:37:50;;;;;;;0.10;0.10;;;;;;;;;;5079297;28;20207;-65
2021/10/28 16:40:16;;;;;;;0.50;0.50;;;;;;;;;;5078968;28;20211;-64
2021/10/28 16:42:44;;;;;;;0.10;0.10;;;;;;;;;;5079066;28;20406;-66
2021/10/28 16:45:10;;;;;;;0.10;0.10;;;;;;;;;;5078747;28;20207;-66
2021/10/28 16:47:36;;;;;;;0.10;0.10;;;;;;;;;;5078713;28;20210;-66
2021/10/28 16:50:03;;;;;;;0.10;0.10;;;;;;;;;;5079167;28;20398;-66
2021/10/28 16:52:30;;;;;;;0.10;0.10;;;;;;;;;;5083151;28;20230;-65
2021/10/28 16:54:56;;;;;;;0.10;0.10;;;;;;;;;;5078460;28;20212;-65
2021/10/28 16:57:22;;;;;;;0.10;0.10;;;;;;;;;;5078694;28;20203;-66
2021/10/28 16:59:50;;;;;;;0.10;0.10;;;;;;;;;;5078770;28;20210;-67
2021/10/28 17:02:16;;;;;;;0.10;0.10;;;;;;;;;;5076670;28;20225;-66
2021/10/28 17:04:42;;;;;;;0.10;0.10;;;;;;;;;;5065246;28;20207;-66
2021/10/28 17:07:08;;;;;;;0.10;0.10;;;;;;;;;;5058386;28;20297;-66
2021/10/28 17:09:34;;;;;;;0.10;0.10;;;;;;;;;;5068581;28;20476;-66
2021/10/28 17:12:01;;;;;;;0.10;0.10;;;;;;;;;;5066981;28;20199;-64
2021/10/28 17:14:27;;;;;;;0.10;0.10;;;;;;;;;;5065314;28;20207;-70
2021/10/28 17:16:55;;;;;;;0.10;0.10;;;;;;;;;;5065352;28;20390;-67
2021/10/28 17:19:21;;;;;;;0.10;0.10;;;;;;;;;;5064957;28;20203;-66
2021/10/28 17:21:48;;;;;;;0.10;0.10;;;;;;;;;;5065262;28;20318;-66
2021/10/28 17:24:24;;;;;;;0.10;0.10;;;;;;;;;;5065242;28;20208;-67
2021/10/28 17:26:51;;;;;;;0.17;0.17;;;;;;;;;;5068212;28;20200;-66
2021/10/28 17:29:17;;;;;;;0.10;0.10;;;;;;;;;;5068144;28;20269;-66
2021/10/28 17:31:44;;;;;;;0.30;0.30;;;;;;;;;;5064632;28;20232;-66
2021/10/28 17:34:11;;;;;;;0.10;0.10;;;;;;;;;;5064520;28;20207;-67
2021/10/28 17:36:37;;;;;;;0.10;0.10;;;;;;;;;;5064455;28;20203;-70
2021/10/28 17:39:04;;;;;;;0.27;0.27;;;;;;;;;;5064727;28;20208;-68
2021/10/28 17:41:30;;;;;;;0.10;0.10;;;;;;;;;;5064804;28;20226;-67
2021/10/28 17:43:57;;;;;;;0.10;0.10;;;;;;;;;;5063846;28;20215;-66
2021/10/28 17:46:26;;;;;;;0.20;0.20;;;;;;;;;;5063723;28;20272;-68
2021/10/28 17:48:53;;;;;;;0.10;0.10;;;;;;;;;;5064469;28;20250;-66
2021/10/28 17:51:21;;;;;;;0.10;0.10;;;;;;;;;;5064383;28;20226;-66
2021/10/28 17:53:47;;;;;;;0.10;0.10;;;;;;;;;;5064607;28;20408;-68
2021/10/28 17:56:14;;;;;;;0.10;0.10;;;;;;;;;;5064248;28;20485;-67
2021/10/28 17:58:40;;;;;;;0.10;0.10;;;;;;;;;;5064255;28;20207;-68
2021/10/28 18:01:07;;;;;;;0.10;0.10;;;;;;;;;;5064639;28;20271;-67
2021/10/28 18:03:34;;;;;;;0.10;0.10;;;;;;;;;;5064491;28;20270;-67
2021/10/28 18:06:00;;;;;;;0.10;0.10;;;;;;;;;;5064509;28;20201;-66
2021/10/28 18:08:28;;;;;;;1.43;1.43;;;;;;;;;;5064013;28;20452;-68
2021/10/28 18:10:54;;;;;;;0.37;0.37;;;;;;;;;;5064313;28;20211;-67
2021/10/28 18:13:21;;;;;;;26.97;4.53;;;;;;;;;;5064326;28;20206;-66
2021/10/28 18:15:47;;;;;;;0.10;0.10;;;;;;;;;;5063341;28;20240;-65
2021/10/28 18:18:13;;;;;;;0.67;0.67;;;;;;;;;;5063159;28;20203;-65
2021/10/28 18:20:40;;;;;;;0.10;0.10;;;;;;;;;;5064049;28;20209;-65
2021/10/28 18:23:07;;;;;;;0.10;0.10;;;;;;;;;;5054361;28;20324;-66
2021/10/28 18:25:35;;;;;;;0.10;0.10;;;;;;;;;;5062025;28;20205;-69
2021/10/28 18:28:02;;;;;;;0.10;0.10;;;;;;;;;;5062991;28;20282;-68
2021/10/28 18:30:29;;;;;;;0.10;0.10;;;;;;;;;;5063494;28;20252;-68
2021/10/28 18:32:56;;;;;;;0.10;0.10;;;;;;;;;;5063526;28;20204;-68
2021/10/28 18:35:22;;;;;;;0.10;0.10;;;;;;;;;;5063302;28;20199;-67
2021/10/28 18:37:49;;;;;;;0.10;0.10;;;;;;;;;;5063002;28;20242;-68
2021/10/28 18:40:16;;;;;;;0.20;0.20;;;;;;;;;;5063618;28;20210;-70
2021/10/28 18:42:44;;;;;;;0.10;0.10;;;;;;;;;;5062779;28;20466;-69
2021/10/28 18:45:11;;;;;;;0.10;0.10;;;;;;;;;;5062995;28;20206;-69
2021/10/28 18:47:37;;;;;;;0.33;0.33;;;;;;;;;;5062632;28;20242;-69
2021/10/28 18:50:05;;;;;;;0.10;0.10;;;;;;;;;;5062512;28;20207;-69
2021/10/28 18:52:31;;;;;;;1.50;1.40;;;;;;;;;;5051539;28;20241;-69
2021/10/28 18:54:58;;;;;;;0.10;0.10;;;;;;;;;;5070576;28;20207;-68
2021/10/28 18:57:25;;;;;;;0.10;0.10;;;;;;;;;;5068514;28;20287;-68
2021/10/28 18:59:53;;;;;;;0.10;0.10;;;;;;;;;;5065382;28;20216;-68
2021/10/28 19:02:20;;;;;;;0.10;0.10;;;;;;;;;;5062005;28;20235;-67
2021/10/28 19:04:48;;;;;;;0.30;0.30;;;;;;;;;;5062820;28;20274;-69
2021/10/28 19:07:14;;;;;;;0.10;0.10;;;;;;;;;;5062616;28;20299;-68
2021/10/28 19:09:41;;;;;;;0.03;0.03;;;;;;;;;;5062800;28;20216;-68
2021/10/28 19:12:07;;;;;;;0.10;0.10;;;;;;;;;;5062659;28;20373;-68
2021/10/28 19:14:38;;;;;;;0.10;0.10;;;;;;;;;;5062883;28;20204;-68
2021/10/28 19:17:05;;;;;;;0.10;0.10;;;;;;;;;;5062235;28;20223;-69
2021/10/28 19:19:32;;;;;;;0.10;0.10;;;;;;;;;;5062147;28;20209;-67
2021/10/28 19:21:59;;;;;;;0.10;0.10;;;;;;;;;;5062728;28;20240;-67
2021/10/28 19:24:25;;;;;;;0.77;0.77;;;;;;;;;;5062870;28;20322;-61
2021/10/28 19:26:51;;;;;;;0.10;0.10;;;;;;;;;;5062458;28;20211;-69
2021/10/28 19:29:19;;;;;;;0.10;0.10;;;;;;;;;;5061547;28;20210;-69
2021/10/28 19:31:52;;;;;;;0.10;0.10;;;;;;;;;;5061984;28;20298;-65
2021/10/28 19:34:20;;;;;;;0.10;0.10;;;;;;;;;;5062184;28;20380;-70
2021/10/28 19:36:56;;;;;;;0.10;0.10;;;;;;;;;;5062575;28;20232;-67
2021/10/28 19:42:23;;;;;;;0.10;0.10;;;;;;;;;;5054866;28;20230;-66
2021/10/28 19:47:33;;;;;;;0.70;0.70;;;;;;;;;;5061996;28;20354;-68
2021/10/28 19:50:00;;;;;;;0.10;0.10;;;;;;;;;;5062169;28;20200;-69
2021/10/28 19:52:27;;;;;;;0.10;0.10;;;;;;;;;;5061989;28;20224;-68
2021/10/28 19:54:57;;;;;;;0.10;0.10;;;;;;;;;;5064413;28;20211;-69
2021/10/28 19:57:25;;;;;;;0.30;0.30;;;;;;;;;;5061189;28;20261;-69
2021/10/28 19:59:57;;;;;;;0.10;0.10;;;;;;;;;;5061439;28;20235;-68
2021/10/28 20:02:29;;;;;;;0.10;0.10;;;;;;;;;;5062574;28;20461;-67
2021/10/28 20:05:20;;;;;;;0.10;0.10;;;;;;;;;;5058178;28;20200;-68
2021/10/28 20:21:36;;;;;;;0.10;0.10;;;;;;;;;;5062411;28;20210;-67
2021/10/28 20:24:04;;;;;;;0.10;0.10;;;;;;;;;;5061470;28;20248;-69
2021/10/28 20:26:31;;;;;;;0.10;0.10;;;;;;;;;;5061301;28;20204;-67
2021/10/28 20:28:59;;;;;;;0.87;0.87;;;;;;;;;;5060273;28;20235;-68
2021/10/28 20:31:26;;;;;;;0.10;0.10;;;;;;;;;;5061631;28;20340;-68
2021/10/28 20:34:03;;;;;;;0.10;0.10;;;;;;;;;;5061530;28;20223;-68
2021/10/28 20:39:14;;;;;;;0.10;0.10;;;;;;;;;;5063959;28;20267;-68
2021/10/28 20:41:41;;;;;;;0.10;0.10;;;;;;;;;;5065805;28;20407;-66
2021/10/28 20:44:07;;;;;;;0.10;0.10;;;;;;;;;;5065242;28;20417;-66
2021/10/28 20:46:34;;;;;;;0.10;0.10;;;;;;;;;;5065550;28;20260;-68
2021/10/28 20:49:00;;;;;;;0.10;0.10;;;;;;;;;;5065690;28;20525;-67
2021/10/28 20:51:26;;;;;;;0.10;0.10;;;;;;;;;;5065120;28;20256;-68
2021/10/28 20:53:52;;;;;;;0.10;0.10;;;;;;;;;;5065111;28;20207;-68
2021/10/28 20:56:25;;;;;;;0.10;0.10;;;;;;;;;;5064999;28;20324;-68
2021/10/28 20:58:51;;;;;;;0.20;0.20;;;;;;;;;;5064047;28;20226;-67
2021/10/28 21:01:18;;;;;;;0.10;0.10;;;;;;;;;;5065261;28;20425;-66
2021/10/28 21:03:45;;;;;;;0.10;0.10;;;;;;;;;;5062849;28;20248;-65
2021/10/28 21:06:11;;;;;;;0.10;0.10;;;;;;;;;;5065132;28;20380;-66
2021/10/28 21:08:37;;;;;;;0.10;0.10;;;;;;;;;;5065348;28;20486;-65
2021/10/28 21:11:03;;;;;;;0.10;0.10;;;;;;;;;;5065276;28;20501;-67
2021/10/28 21:13:31;;;;;;;0.10;0.10;;;;;;;;;;5064980;28;20202;-67
2021/10/28 21:15:59;;;;;;;0.10;0.10;;;;;;;;;;5062708;28;20220;-67
2021/10/28 21:18:26;;;;;;;0.10;0.10;;;;;;;;;;5067381;28;20211;-67
2021/10/28 21:20:52;;;;;;;0.20;0.20;;;;;;;;;;5064521;28;20266;-67
2021/10/28 21:23:18;;;;;;;0.10;0.10;;;;;;;;;;5065549;28;20234;-66
2021/10/28 21:25:45;;;;;;;0.17;0.17;;;;;;;;;;5061234;28;20214;-67
2021/10/28 21:28:11;;;;;;;0.10;0.10;;;;;;;;;;5058481;28;20207;-67
2021/10/28 21:30:39;;;;;;;0.10;0.10;;;;;;;;;;5064687;28;20547;-66
2021/10/28 21:33:05;;;;;;;0.60;0.60;;;;;;;;;;5065195;28;20552;-65
2021/10/28 21:35:32;;;;;;;0.10;0.10;;;;;;;;;;5064744;28;20252;-67
2021/10/28 21:37:58;;;;;;;0.10;0.10;;;;;;;;;;5064996;28;20207;-69
2021/10/28 21:40:25;;;;;;;0.10;0.10;;;;;;;;;;5064567;28;20214;-66
2021/10/28 21:42:51;;;;;;;0.13;0.13;;;;;;;;;;5064609;28;20242;-67
2021/10/28 21:45:17;;;;;;;0.10;0.10;;;;;;;;;;5064302;28;20196;-66
2021/10/28 21:47:48;;;;;;;0.10;0.10;;;;;;;;;;5064472;28;20214;-66
2021/10/28 21:50:15;;;;;;;0.10;0.10;;;;;;;;;;5064135;28;20208;-66
2021/10/28 21:52:45;;;;;;;0.10;0.10;;;;;;;;;;5063946;28;20420;-66
2021/10/28 21:55:23;;;;;;;0.10;0.10;;;;;;;;;;5064408;28;20209;-66
2021/10/28 21:57:55;;;;;;;0.10;0.10;;;;;;;;;;5064244;28;20367;-66
2021/10/28 22:00:31;;;;;;;0.20;0.20;;;;;;;;;;5064318;28;20257;-66
2021/10/28 22:06:03;;;;;;;0.10;0.10;;;;;;;;;;5062546;28;20213;-66
2021/10/28 22:24:57;;;;;;;0.10;0.10;;;;;;;;;;5064011;28;20208;-65
2021/10/28 22:27:25;;;;;;;4.03;3.93;;;;;;;;;;5063780;28;20210;-66
2021/10/28 22:29:51;;;;;;;0.30;0.30;;;;;;;;;;5064090;28;20207;-67
2021/10/28 22:32:18;;;;;;;0.10;0.10;;;;;;;;;;5063486;28;20222;-66
2021/10/28 22:34:46;;;;;;;0.20;0.20;;;;;;;;;;5064001;28;20227;-66
2021/10/28 22:37:21;;;;;;;0.20;0.20;;;;;;;;;;5063486;28;20240;-66
2021/10/28 22:39:55;;;;;;;0.10;0.10;;;;;;;;;;5063971;28;20206;-66
2021/10/28 22:42:22;;;;;;;0.10;0.10;;;;;;;;;;5063731;28;20520;-67
2021/10/28 22:44:49;;;;;;;0.30;0.30;;;;;;;;;;5063815;28;20246;-67
2021/10/28 22:47:15;;;;;;;0.10;0.10;;;;;;;;;;5063717;28;20203;-66
2021/10/28 22:49:41;;;;;;;0.10;0.10;;;;;;;;;;5063682;28;20489;-66
2021/10/28 22:52:12;;;;;;;0.10;0.10;;;;;;;;;;5063323;28;20259;-65